Accueil
METAR-TAF:

METAR-TAF

Aéroports :

Aéroport du Frioul-Vénétie julienne

Trieste / Ronchi dei Legionari, Italie

latitude: 45-49N, longitude: 013-29E, altitude: 12 m

Observation

Le bulletin a été fait il y a 22 minutes, à 15:20 UTC
Vent 13 kt de est/sud-est
Température 29°C
Humidité 40%
Pression 1010 hPa
Visibilité 10 km ou plus

METAR: LIPQ 231520Z AUTO 11013KT 9999 BKN093/// BKN190/// 29/14 Q1010

Heure: 17:42 (15:42 UTC)

Prévision

Le bulletin a été fait il y a 4 heures et 42 minutes, à 11:00 UTC
Prévision valable du 23 à 12 UTC au 24 à 12 UTC
Vent 17 kt de est/sud-est
Visibilité 10 km ou plus
Nuages épars à une hauteur de 4000 ft
Evoluant progressivement
du 23 à 20 UTC au 23 à 22 UTC
Vent 15 kt de nord/nord-est
Temporairement
du 24 à 04 UTC au 24 à 10 UTC
Visibilité: 4000 m
averses de pluie,

TAF: LIPQ 231100Z 2312/2412 12017KT 9999 SCT040 BECMG 2320/2322 03015KT TEMPO 2404/2410 4000 SHRA

Observations et prévisions météorologiques de plus de 4000 aéroports (messages METAR et TAF).

Les stations disponibles sont représentées par des disques jaunes et rouges sur la carte.

Passer la souris dessus pour voir le nom de la station.

Cliquer dessus pour voir les observations et prévisions météorologiques.

Pour changer de carte: cliquez sur les boutons verts avec une croix noire pour zoomer, sur le bouton vert avec un tiret pour effectuer un zoom arrière, ou sur les flèches vertes pour les cartes adjacentes.


METAR-TAF: